Time;durP1;ratioP1;P1;durP2;ratioP2;P2;SDS_P1;SDS_P2;PMS_P1;PMS_P2;Temp;Humidity;BMP_temperature;BMP_pressure;BME280_temperature;BME280_humidity;BME280_pressure;Samples;Min_cycle;Max_cycle;Signal;HPM_P1;HPM_P2
2021/07/07 00:00:28;;;;;;;0.30;0.15;;;18.40;99.90;;;;;;5052451;28;20028;-74
2021/07/07 00:02:54;;;;;;;0.20;0.20;;;18.10;99.90;;;;;;5034298;28;20044;-74
2021/07/07 00:05:20;;;;;;;0.10;0.10;;;17.90;99.90;;;;;;5052426;28;20031;-75
2021/07/07 00:07:47;;;;;;;0.00;0.00;;;17.80;99.90;;;;;;5052202;28;20029;-74
2021/07/07 00:10:18;;;;;;;0.00;0.00;;;17.70;99.90;;;;;;5052188;28;20404;-74
2021/07/07 00:12:47;;;;;;;0.10;0.10;;;17.70;99.90;;;;;;5052144;28;20033;-75
2021/07/07 00:15:17;;;;;;;0.05;0.05;;;17.80;99.90;;;;;;5034482;28;20025;-74
2021/07/07 00:17:42;;;;;;;0.00;0.00;;;17.90;99.90;;;;;;5052031;28;20027;-74
2021/07/07 00:20:10;;;;;;;0.00;0.00;;;18.10;99.90;;;;;;5051782;28;20096;-74
2021/07/07 00:22:36;;;;;;;0.00;0.00;;;18.30;99.90;;;;;;5051649;28;20028;-74
2021/07/07 00:25:05;;;;;;;0.00;0.00;;;18.50;99.90;;;;;;5052067;28;20112;-74
2021/07/07 00:27:32;;;;;;;0.00;0.00;;;18.70;99.90;;;;;;5033974;28;20094;-74
2021/07/07 00:29:59;;;;;;;0.00;0.00;;;18.60;99.90;;;;;;5017738;28;20025;-74
2021/07/07 00:32:25;;;;;;;9.85;0.20;;;18.70;99.90;;;;;;5051757;28;20035;-74
2021/07/07 00:34:51;;;;;;;0.10;0.10;;;18.70;99.90;;;;;;5051666;28;20017;-74
2021/07/07 00:37:16;;;;;;;0.20;0.20;;;18.70;99.90;;;;;;5051721;28;20472;-74
2021/07/07 00:39:42;;;;;;;0.00;0.00;;;18.60;99.90;;;;;;5051843;28;20060;-74
2021/07/07 00:42:09;;;;;;;0.00;0.00;;;18.60;99.90;;;;;;5051747;28;20017;-74
2021/07/07 00:44:35;;;;;;;0.10;0.10;;;18.80;99.90;;;;;;5052342;28;20048;-74
2021/07/07 00:47:01;;;;;;;0.00;0.00;;;18.80;99.90;;;;;;5051743;28;20075;-74
2021/07/07 00:49:26;;;;;;;0.00;0.00;;;18.80;99.90;;;;;;5033845;28;20029;-74
2021/07/07 00:51:52;;;;;;;0.10;0.10;;;18.80;99.90;;;;;;5051747;28;20031;-74
2021/07/07 00:54:19;;;;;;;0.13;0.13;;;18.70;99.90;;;;;;5033626;28;20473;-74
2021/07/07 00:56:48;;;;;;;0.10;0.10;;;18.60;99.90;;;;;;5051700;28;20028;-74
2021/07/07 00:59:15;;;;;;;0.75;0.13;;;18.40;99.90;;;;;;5051459;28;20017;-74
2021/07/07 01:01:42;;;;;;;0.05;0.05;;;18.20;99.90;;;;;;5051494;28;20037;-74
2021/07/07 01:04:07;;;;;;;0.00;0.00;;;18.10;99.90;;;;;;5033630;28;20039;-74
2021/07/07 01:06:33;;;;;;;0.00;0.00;;;18.30;99.90;;;;;;5051641;28;20104;-74
2021/07/07 01:08:59;;;;;;;0.17;0.17;;;18.50;99.90;;;;;;5033464;28;20499;-74
2021/07/07 01:11:25;;;;;;;0.00;0.00;;;18.60;99.90;;;;;;5033936;28;20037;-74
2021/07/07 01:13:50;;;;;;;0.10;0.10;;;18.80;99.90;;;;;;5051451;28;20440;-74
2021/07/07 01:16:16;;;;;;;0.03;0.03;;;18.70;99.90;;;;;;5051595;28;20075;-74
2021/07/07 01:18:42;;;;;;;0.00;0.00;;;18.50;99.90;;;;;;5051306;28;20056;-74
2021/07/07 01:21:07;;;;;;;0.00;0.00;;;18.40;99.90;;;;;;5033601;28;20053;-74
2021/07/07 01:23:34;;;;;;;0.08;0.08;;;18.70;99.90;;;;;;5051354;28;20024;-74
2021/07/07 01:25:59;;;;;;;0.10;0.10;;;18.70;99.90;;;;;;5033679;28;20025;-74
2021/07/07 01:28:25;;;;;;;0.05;0.05;;;18.70;99.90;;;;;;5033364;28;20029;-74
2021/07/07 01:30:51;;;;;;;0.00;0.00;;;18.80;99.90;;;;;;5033678;28;20025;-74
2021/07/07 01:33:17;;;;;;;0.00;0.00;;;18.70;99.90;;;;;;5036038;28;20036;-74
2021/07/07 01:35:43;;;;;;;0.00;0.00;;;18.60;99.90;;;;;;5054924;28;20499;-74
2021/07/07 01:38:08;;;;;;;0.00;0.00;;;18.50;99.90;;;;;;5054971;28;20376;-74
2021/07/07 01:40:34;;;;;;;0.00;0.00;;;18.50;99.90;;;;;;5037062;28;20044;-74
2021/07/07 01:43:00;;;;;;;0.00;0.00;;;18.70;99.90;;;;;;5055032;28;20029;-74
2021/07/07 01:45:26;;;;;;;0.10;0.10;;;18.90;99.90;;;;;;5037180;28;20162;-74
2021/07/07 01:47:53;;;;;;;0.00;0.00;;;19.10;99.90;;;;;;5054869;28;20617;-74
2021/07/07 01:50:20;;;;;;;0.10;0.10;;;19.10;99.90;;;;;;5037336;28;20032;-74
2021/07/07 01:52:46;;;;;;;0.00;0.00;;;19.10;99.90;;;;;;5054747;28;20032;-74
2021/07/07 01:55:17;;;;;;;0.10;0.10;;;19.10;99.90;;;;;;5054846;28;20021;-74
2021/07/07 01:57:45;;;;;;;0.00;0.00;;;19.30;99.90;;;;;;5054725;28;20021;-74
2021/07/07 02:00:22;;;;;;;0.00;0.00;;;19.20;99.90;;;;;;5055178;28;20017;-74
2021/07/07 02:02:50;;;;;;;0.00;0.00;;;19.10;99.90;;;;;;5077406;23;20037;-75
2021/07/07 02:05:17;;;;;;;0.10;0.10;;;19.30;99.90;;;;;;5034248;28;20476;-76
2021/07/07 02:07:43;;;;;;;0.00;0.00;;;19.30;99.90;;;;;;5016724;28;20111;-76
2021/07/07 02:10:12;;;;;;;0.05;0.05;;;19.40;99.90;;;;;;5034607;28;20031;-75
2021/07/07 02:12:39;;;;;;;0.00;0.00;;;19.40;99.90;;;;;;5034558;28;20045;-75
2021/07/07 02:15:10;;;;;;;0.00;0.00;;;19.20;99.90;;;;;;5034435;28;20053;-76
2021/07/07 02:17:36;;;;;;;0.00;0.00;;;19.30;99.90;;;;;;5034252;28;20500;-75
2021/07/07 02:20:08;;;;;;;0.10;0.10;;;19.30;99.90;;;;;;5016547;28;20279;-75
2021/07/07 02:22:34;;;;;;;0.00;0.00;;;19.10;99.90;;;;;;5034387;28;20083;-76
2021/07/07 02:25:01;;;;;;;0.00;0.00;;;19.00;99.90;;;;;;5034262;28;20033;-75
2021/07/07 02:27:26;;;;;;;0.00;0.00;;;19.00;99.90;;;;;;5034171;28;20385;-75
2021/07/07 02:29:52;;;;;;;0.10;0.10;;;19.20;99.90;;;;;;5034214;28;20025;-75
2021/07/07 02:32:18;;;;;;;0.10;0.10;;;19.30;99.90;;;;;;5016346;28;20079;-76
2021/07/07 02:34:44;;;;;;;0.10;0.10;;;19.20;99.90;;;;;;5033979;28;20392;-76
2021/07/07 02:37:09;;;;;;;0.00;0.00;;;19.20;99.90;;;;;;5032839;28;20021;-76
2021/07/07 02:39:35;;;;;;;0.00;0.00;;;19.20;99.90;;;;;;5033994;28;20025;-76
2021/07/07 02:42:01;;;;;;;0.00;0.00;;;19.20;99.90;;;;;;5016291;28;20018;-76
2021/07/07 02:44:27;;;;;;;0.00;0.00;;;19.30;99.90;;;;;;5033373;28;20025;-76
2021/07/07 02:46:52;;;;;;;0.00;0.00;;;19.40;99.90;;;;;;5032717;28;20022;-75
2021/07/07 02:49:20;;;;;;;0.00;0.00;;;19.40;99.90;;;;;;5016051;28;20041;-76
2021/07/07 02:51:46;;;;;;;0.00;0.00;;;19.50;99.90;;;;;;5033732;28;20013;-75
2021/07/07 02:54:12;;;;;;;0.00;0.00;;;19.50;99.90;;;;;;4999629;28;20079;-75
2021/07/07 02:56:37;;;;;;;0.00;0.00;;;19.60;99.90;;;;;;5033775;28;20040;-76
2021/07/07 02:59:03;;;;;;;0.08;0.08;;;19.50;99.90;;;;;;5032311;28;20025;-75
2021/07/07 03:01:30;;;;;;;0.00;0.00;;;19.50;99.90;;;;;;5015954;28;20079;-76
2021/07/07 03:03:56;;;;;;;0.00;0.00;;;19.40;99.90;;;;;;5033515;28;20316;-75
2021/07/07 03:06:22;;;;;;;0.00;0.00;;;19.30;99.90;;;;;;4999470;28;20120;-75
2021/07/07 03:08:47;;;;;;;0.00;0.00;;;19.20;99.90;;;;;;5033435;28;20120;-76
2021/07/07 03:11:13;;;;;;;0.10;0.10;;;19.00;99.90;;;;;;5015695;28;20045;-76
2021/07/07 03:13:39;;;;;;;0.05;0.05;;;19.00;99.90;;;;;;5015613;28;20032;-76
2021/07/07 03:16:05;;;;;;;0.00;0.00;;;19.20;99.90;;;;;;5033347;28;20071;-75
2021/07/07 03:18:30;;;;;;;0.00;0.00;;;19.20;99.90;;;;;;5033142;28;20021;-76
2021/07/07 03:20:56;;;;;;;0.00;0.00;;;19.40;99.90;;;;;;5031942;28;20053;-75
2021/07/07 03:23:23;;;;;;;0.00;0.00;;;19.40;99.90;;;;;;5015483;28;20049;-76
2021/07/07 03:25:51;;;;;;;0.00;0.00;;;19.30;99.90;;;;;;4999101;28;20034;-75
2021/07/07 03:28:19;;;;;;;0.00;0.00;;;19.30;99.90;;;;;;5032914;28;20025;-75
2021/07/07 03:30:45;;;;;;;0.08;0.08;;;19.30;99.90;;;;;;5033182;28;20030;-75
2021/07/07 03:33:11;;;;;;;0.10;0.10;;;19.20;99.90;;;;;;5032884;28;20026;-76
2021/07/07 03:35:37;;;;;;;0.05;0.05;;;19.10;99.90;;;;;;5033115;28;20052;-75
2021/07/07 03:38:04;;;;;;;0.00;0.00;;;19.00;99.90;;;;;;5015061;28;20469;-75
2021/07/07 03:40:32;;;;;;;0.10;0.10;;;19.00;99.90;;;;;;5033320;28;20076;-75
2021/07/07 03:42:59;;;;;;;0.30;0.30;;;19.00;99.90;;;;;;5032743;28;20563;-75
2021/07/07 03:45:25;;;;;;;0.00;0.00;;;19.00;99.90;;;;;;5032739;28;20024;-74
2021/07/07 03:47:51;;;;;;;0.00;0.00;;;19.00;99.90;;;;;;5032551;28;20037;-75
2021/07/07 03:50:18;;;;;;;0.00;0.00;;;19.00;99.90;;;;;;5032501;28;20083;-75
2021/07/07 03:52:45;;;;;;;0.00;0.00;;;18.80;99.90;;;;;;5014782;28;20501;-75
2021/07/07 03:55:12;;;;;;;0.00;0.00;;;18.80;99.90;;;;;;5032142;28;20028;-75
2021/07/07 03:57:38;;;;;;;0.00;0.00;;;18.90;99.90;;;;;;5014348;28;20017;-76
2021/07/07 04:00:10;;;;;;;0.10;0.10;;;18.80;99.90;;;;;;5014806;28;20079;-76
2021/07/07 04:02:36;;;;;;;0.03;0.03;;;18.70;99.90;;;;;;5032294;28;20504;-75
2021/07/07 04:05:03;;;;;;;1.60;0.35;;;18.60;99.90;;;;;;5014780;28;20037;-75
2021/07/07 04:07:29;;;;;;;0.00;0.00;;;18.70;99.90;;;;;;5032257;28;20104;-75
2021/07/07 04:09:55;;;;;;;0.10;0.10;;;18.70;99.90;;;;;;5014486;28;20163;-75
2021/07/07 04:12:21;;;;;;;0.10;0.10;;;18.90;99.90;;;;;;5014516;28;20433;-76
2021/07/07 04:14:46;;;;;;;0.00;0.00;;;18.90;99.90;;;;;;5032393;28;20052;-75
2021/07/07 04:17:12;;;;;;;0.10;0.10;;;18.80;99.90;;;;;;5014563;28;20029;-76
2021/07/07 04:19:38;;;;;;;0.05;0.05;;;18.60;99.90;;;;;;5032129;28;20017;-75
2021/07/07 04:22:04;;;;;;;0.00;0.00;;;18.50;99.90;;;;;;5032130;28;20017;-75
2021/07/07 04:24:30;;;;;;;0.10;0.10;;;18.40;99.90;;;;;;5032242;28;20064;-75
2021/07/07 04:26:55;;;;;;;0.00;0.00;;;18.40;99.90;;;;;;5032100;28;20512;-75
2021/07/07 04:29:21;;;;;;;0.05;0.05;;;18.30;99.90;;;;;;5031950;28;20431;-75
2021/07/07 04:31:47;;;;;;;0.00;0.00;;;18.30;99.90;;;;;;5032029;28;20155;-76
2021/07/07 04:34:14;;;;;;;0.95;0.85;;;18.10;99.90;;;;;;5031616;28;20064;-75
2021/07/07 04:36:40;;;;;;;0.10;0.10;;;18.20;99.90;;;;;;5031930;28;20061;-76
2021/07/07 04:39:08;;;;;;;0.25;0.25;;;18.20;99.90;;;;;;5031735;28;20058;-77
2021/07/07 04:41:34;;;;;;;0.00;0.00;;;18.00;99.90;;;;;;5030667;28;20029;-76
2021/07/07 04:44:00;;;;;;;0.00;0.00;;;18.00;99.90;;;;;;5014292;28;20116;-75
2021/07/07 04:46:26;;;;;;;0.10;0.10;;;18.10;99.90;;;;;;5031933;28;20025;-75
2021/07/07 04:48:52;;;;;;;0.20;0.20;;;18.10;99.90;;;;;;5030678;28;20133;-76
2021/07/07 04:51:17;;;;;;;0.00;0.00;;;18.00;99.90;;;;;;5014263;28;20551;-76
2021/07/07 04:53:43;;;;;;;0.00;0.00;;;17.90;99.90;;;;;;5031762;28;20030;-76
2021/07/07 04:56:09;;;;;;;0.00;0.00;;;17.90;99.90;;;;;;5031906;28;20022;-76
2021/07/07 04:58:41;;;;;;;0.10;0.10;;;18.10;99.90;;;;;;4997644;28;20431;-76
2021/07/07 05:01:07;;;;;;;0.00;0.00;;;18.20;99.90;;;;;;5031925;28;20063;-75
2021/07/07 05:03:33;;;;;;;0.00;0.00;;;18.30;99.90;;;;;;5031376;28;20068;-76
2021/07/07 05:05:59;;;;;;;0.20;0.20;;;18.40;99.90;;;;;;5031844;28;20057;-75
2021/07/07 05:08:25;;;;;;;0.10;0.10;;;18.40;99.90;;;;;;5034752;28;20512;-76
2021/07/07 05:10:51;;;;;;;0.00;0.00;;;18.50;99.90;;;;;;5001661;28;20063;-75
2021/07/07 05:13:18;;;;;;;0.03;0.03;;;18.40;99.90;;;;;;5035653;28;20025;-76
2021/07/07 05:15:46;;;;;;;0.10;0.10;;;18.20;99.90;;;;;;5035990;28;20097;-76
2021/07/07 05:18:12;;;;;;;0.17;0.10;;;18.20;99.90;;;;;;5035354;28;20536;-76
2021/07/07 05:20:38;;;;;;;0.10;0.10;;;18.10;99.90;;;;;;5035499;28;20060;-76
2021/07/07 05:23:07;;;;;;;0.10;0.10;;;18.00;99.90;;;;;;5034099;28;20059;-76
2021/07/07 05:25:35;;;;;;;0.00;0.00;;;17.90;99.90;;;;;;5035497;28;20026;-76
2021/07/07 05:28:01;;;;;;;0.00;0.00;;;17.90;99.90;;;;;;5035395;28;20059;-76
2021/07/07 05:30:28;;;;;;;0.10;0.10;;;18.00;99.90;;;;;;5035334;28;20029;-76
2021/07/07 05:32:55;;;;;;;0.00;0.00;;;18.00;99.90;;;;;;5035115;28;20025;-76
2021/07/07 05:35:26;;;;;;;0.08;0.08;;;18.10;99.90;;;;;;5032310;28;20500;-74
2021/07/07 05:37:52;;;;;;;0.10;0.10;;;18.00;99.90;;;;;;5042586;28;20111;-76
2021/07/07 05:40:19;;;;;;;0.17;0.17;;;18.00;99.90;;;;;;5044217;28;20025;-76
2021/07/07 05:42:55;;;;;;;0.13;0.13;;;17.80;99.90;;;;;;5034809;28;20029;-75
2021/07/07 05:45:24;;;;;;;0.00;0.00;;;17.90;99.90;;;;;;5017395;28;20493;-75
2021/07/07 05:47:50;;;;;;;0.00;0.00;;;18.00;99.90;;;;;;5017069;28;20026;-75
2021/07/07 05:50:18;;;;;;;0.00;0.00;;;18.20;99.90;;;;;;5035035;28;20468;-74
2021/07/07 05:52:44;;;;;;;0.05;0.05;;;18.20;99.90;;;;;;5044167;28;20027;-80
2021/07/07 05:55:11;;;;;;;0.30;0.30;;;18.20;99.90;;;;;;5038679;28;20400;-80
2021/07/07 05:57:37;;;;;;;0.30;0.30;;;18.00;99.90;;;;;;5021405;28;20083;-80
2021/07/07 06:00:19;;;;;;;0.68;0.55;;;17.80;99.90;;;;;;5003395;28;20435;-77
2021/07/07 06:02:47;;;;;;;0.38;0.30;;;17.90;99.90;;;;;;5016420;28;20116;-77
2021/07/07 06:05:14;;;;;;;0.10;0.10;;;17.90;99.90;;;;;;5034270;28;20105;-77
2021/07/07 06:07:41;;;;;;;0.10;0.10;;;17.90;99.90;;;;;;5034356;28;20470;-77
2021/07/07 06:10:12;;;;;;;0.10;0.10;;;17.90;99.90;;;;;;5000588;28;20112;-77
2021/07/07 06:12:39;;;;;;;0.00;0.00;;;17.80;99.90;;;;;;5016660;28;20028;-76
2021/07/07 06:15:07;;;;;;;0.10;0.10;;;17.90;99.90;;;;;;5033115;28;20476;-77
2021/07/07 06:17:33;;;;;;;0.00;0.00;;;18.00;99.90;;;;;;5032698;28;20405;-77
2021/07/07 06:19:59;;;;;;;0.10;0.10;;;18.00;99.90;;;;;;5014607;28;20029;-77
2021/07/07 06:22:25;;;;;;;0.10;0.10;;;18.00;99.90;;;;;;5032733;28;20477;-77
2021/07/07 06:24:52;;;;;;;0.00;0.00;;;18.10;99.90;;;;;;5032948;28;20064;-77
2021/07/07 06:27:17;;;;;;;0.00;0.00;;;18.10;99.90;;;;;;5016191;28;20024;-77
2021/07/07 06:29:43;;;;;;;0.10;0.10;;;18.20;99.90;;;;;;5034229;28;20121;-77
2021/07/07 06:32:09;;;;;;;0.00;0.00;;;18.10;99.90;;;;;;5032801;28;20018;-76
2021/07/07 06:34:35;;;;;;;0.10;0.10;;;18.10;99.90;;;;;;5034223;28;20112;-76
2021/07/07 06:37:01;;;;;;;0.00;0.00;;;18.30;99.90;;;;;;5035104;28;20376;-76
2021/07/07 06:39:26;;;;;;;0.05;0.05;;;18.30;99.90;;;;;;5044462;28;20420;-76
2021/07/07 06:41:53;;;;;;;0.10;0.10;;;18.40;99.90;;;;;;5040901;28;20021;-77
2021/07/07 06:44:20;;;;;;;0.10;0.10;;;18.30;99.90;;;;;;5016009;28;20025;-77
2021/07/07 06:46:45;;;;;;;0.15;0.15;;;18.40;99.90;;;;;;5031058;28;20025;-77
2021/07/07 06:49:12;;;;;;;0.00;0.00;;;18.50;99.90;;;;;;5032370;28;20021;-77
2021/07/07 06:51:38;;;;;;;0.00;0.00;;;18.60;99.90;;;;;;5033115;28;20025;-77
2021/07/07 06:54:04;;;;;;;0.05;0.05;;;18.60;99.90;;;;;;5041160;28;20147;-76
2021/07/07 06:56:29;;;;;;;0.10;0.10;;;18.60;99.90;;;;;;5034759;28;20109;-77
2021/07/07 06:58:55;;;;;;;0.00;0.00;;;18.70;99.90;;;;;;5032065;28;20444;-77
2021/07/07 07:01:21;;;;;;;0.10;0.10;;;18.80;99.90;;;;;;5032585;28;20056;-80
2021/07/07 07:03:47;;;;;;;0.10;0.10;;;18.90;99.90;;;;;;5033850;28;20029;-80
2021/07/07 07:06:13;;;;;;;0.10;0.10;;;19.00;99.90;;;;;;5022994;28;20025;-79
2021/07/07 07:08:39;;;;;;;0.38;0.20;;;19.00;99.90;;;;;;5028421;28;20029;-75
2021/07/07 07:11:05;;;;;;;0.10;0.10;;;18.90;99.90;;;;;;5033017;28;20036;-76
2021/07/07 07:13:30;;;;;;;0.10;0.10;;;19.00;99.90;;;;;;5020722;28;20036;-76
2021/07/07 07:15:56;;;;;;;0.08;0.08;;;19.10;99.90;;;;;;5035994;28;20049;-78
2021/07/07 07:18:22;;;;;;;0.10;0.10;;;19.30;99.90;;;;;;5006216;28;20108;-78
2021/07/07 07:20:48;;;;;;;0.10;0.10;;;19.30;99.90;;;;;;5002255;28;20018;-79
2021/07/07 07:23:14;;;;;;;0.00;0.00;;;19.30;99.90;;;;;;5035771;28;20065;-79
2021/07/07 07:25:41;;;;;;;0.10;0.10;;;19.30;99.90;;;;;;5027756;28;20044;-78
2021/07/07 07:28:06;;;;;;;0.10;0.10;;;19.40;99.90;;;;;;5029357;28;20132;-78
2021/07/07 07:30:32;;;;;;;0.00;0.00;;;19.40;99.90;;;;;;5025257;28;20068;-79
2021/07/07 07:32:59;;;;;;;0.10;0.10;;;19.50;99.90;;;;;;5039218;28;20108;-79
2021/07/07 07:35:26;;;;;;;0.03;0.03;;;19.20;99.90;;;;;;5011346;28;20481;-77
2021/07/07 07:38:04;;;;;;;0.10;0.10;;;19.20;99.90;;;;;;5035722;28;20499;-79
2021/07/07 07:40:36;;;;;;;0.10;0.10;;;19.20;99.90;;;;;;5020772;28;20396;-77
2021/07/07 07:43:04;;;;;;;0.00;0.00;;;19.50;99.90;;;;;;5019523;28;20471;-78
2021/07/07 07:45:30;;;;;;;0.00;0.00;;;19.60;99.90;;;;;;5034343;28;20141;-78
2021/07/07 07:47:56;;;;;;;0.10;0.10;;;19.70;99.90;;;;;;5033814;28;20056;-78
2021/07/07 07:50:22;;;;;;;0.10;0.10;;;19.80;99.90;;;;;;5022255;28;20091;-79
2021/07/07 07:52:49;;;;;;;0.00;0.00;;;19.90;99.90;;;;;;5017132;28;20381;-79
2021/07/07 07:55:15;;;;;;;0.10;0.10;;;19.90;99.90;;;;;;5035392;28;20430;-79
2021/07/07 07:57:41;;;;;;;0.10;0.10;;;19.80;99.90;;;;;;5020080;28;20152;-79
2021/07/07 08:00:14;;;;;;;0.00;0.00;;;19.90;99.90;;;;;;5021431;28;20025;-79
2021/07/07 08:02:50;;;;;;;0.03;0.03;;;19.80;99.90;;;;;;5018329;28;20502;-79
2021/07/07 08:05:35;;;;;;;0.00;0.00;;;19.70;99.90;;;;;;5005694;28;20033;-79
2021/07/07 08:08:02;;;;;;;0.10;0.10;;;19.70;99.90;;;;;;5025379;28;20091;-79
2021/07/07 08:10:28;;;;;;;0.10;0.10;;;19.70;99.90;;;;;;5026244;28;20057;-79
2021/07/07 08:12:55;;;;;;;0.00;0.00;;;19.80;99.90;;;;;;5011665;28;20089;-79
2021/07/07 08:15:21;;;;;;;0.10;0.10;;;20.00;99.90;;;;;;5034709;28;20052;-79
2021/07/07 08:17:47;;;;;;;0.08;0.08;;;20.10;99.90;;;;;;5035445;28;20022;-80
2021/07/07 08:20:14;;;;;;;0.30;0.30;;;20.00;99.90;;;;;;5023198;28;20022;-79
2021/07/07 08:22:40;;;;;;;0.00;0.00;;;19.90;99.90;;;;;;5034405;28;20033;-79
2021/07/07 08:25:07;;;;;;;0.00;0.00;;;20.00;99.90;;;;;;5028466;28;20031;-79
2021/07/07 08:27:33;;;;;;;0.00;0.00;;;20.00;99.90;;;;;;5022848;28;20763;-79
2021/07/07 08:29:59;;;;;;;0.00;0.00;;;19.90;99.90;;;;;;5034235;28;20108;-79
2021/07/07 08:32:25;;;;;;;0.10;0.10;;;20.00;99.90;;;;;;5023723;28;20030;-78
2021/07/07 08:34:50;;;;;;;0.10;0.10;;;20.10;99.90;;;;;;5023191;28;20036;-79
2021/07/07 08:37:16;;;;;;;0.10;0.10;;;20.20;99.90;;;;;;5032812;28;20497;-80
2021/07/07 08:39:42;;;;;;;0.10;0.10;;;20.20;99.90;;;;;;5017528;28;20026;-79
2021/07/07 08:42:08;;;;;;;0.10;0.10;;;20.10;99.90;;;;;;5029213;28;20497;-79
2021/07/07 08:44:34;;;;;;;0.00;0.00;;;20.10;99.90;;;;;;5024765;28;20031;-79
2021/07/07 08:47:00;;;;;;;0.10;0.10;;;20.10;99.90;;;;;;5028591;28;20110;-79
2021/07/07 08:49:26;;;;;;;0.03;0.03;;;20.00;99.90;;;;;;5034846;28;20021;-78
2021/07/07 08:51:52;;;;;;;0.10;0.10;;;20.10;99.90;;;;;;5029345;28;20639;-79
2021/07/07 08:54:18;;;;;;;0.10;0.10;;;20.20;99.90;;;;;;5034609;28;20033;-79
2021/07/07 08:56:46;;;;;;;0.10;0.10;;;20.30;99.90;;;;;;5021817;28;20124;-77
2021/07/07 08:59:14;;;;;;;0.00;0.00;;;20.30;99.90;;;;;;5004433;28;20124;-78
2021/07/07 09:02:03;;;;;;;0.00;0.00;;;20.40;99.90;;;;;;5023160;28;20022;-78
2021/07/07 09:04:33;;;;;;;0.00;0.00;;;20.50;99.90;;;;;;4996330;28;20033;-77
2021/07/07 09:07:06;;;;;;;0.10;0.10;;;20.80;99.90;;;;;;5007332;28;20025;-78
2021/07/07 09:09:35;;;;;;;0.10;0.10;;;21.00;99.90;;;;;;5015886;28;20033;-77
2021/07/07 09:12:00;;;;;;;0.00;0.00;;;21.20;99.90;;;;;;5028347;28;20033;-77
2021/07/07 09:14:32;;;;;;;0.00;0.00;;;21.50;99.90;;;;;;5008140;28;20110;-77
2021/07/07 09:17:02;;;;;;;;;;;21.70;99.90;;;;;;5031293;28;20500;-77
2021/07/07 09:19:30;;;;;;;0.10;0.10;;;21.50;99.90;;;;;;5004240;28;19913;-79
2021/07/07 09:22:05;;;;;;;0.10;0.10;;;21.60;99.90;;;;;;5030633;28;20022;-77
2021/07/07 09:24:31;;;;;;;0.30;0.30;;;21.50;99.90;;;;;;5012132;28;20389;-76
2021/07/07 09:27:12;;;;;;;0.10;0.10;;;21.60;99.90;;;;;;5033070;28;20445;-77
2021/07/07 09:29:42;;;;;;;0.10;0.10;;;21.50;99.90;;;;;;5030538;28;20029;-77
2021/07/07 09:32:29;;;;;;;0.10;0.10;;;21.40;99.90;;;;;;5007780;28;20033;-77
2021/07/07 09:35:15;;;;;;;0.15;0.15;;;21.30;99.90;;;;;;5017266;28;20503;-77
2021/07/07 09:37:53;;;;;;;0.10;0.10;;;21.20;99.90;;;;;;5017767;28;20029;-77
2021/07/07 09:40:20;;;;;;;0.00;0.00;;;21.20;99.90;;;;;;5030349;28;20477;-77
2021/07/07 09:42:48;;;;;;;0.10;0.10;;;21.20;99.90;;;;;;5030974;28;20119;-77
2021/07/07 09:45:19;;;;;;;0.00;0.00;;;21.20;99.90;;;;;;5024458;28;20336;-77
2021/07/07 09:47:47;;;;;;;;;;;21.30;99.90;;;;;;5031161;28;20108;-78
2021/07/07 09:50:15;;;;;;;0.08;0.08;;;21.30;99.90;;;;;;5021958;28;20388;-77
2021/07/07 09:52:41;;;;;;;0.10;0.10;;;21.50;99.90;;;;;;5008226;28;20132;-77
2021/07/07 09:55:09;;;;;;;0.00;0.00;;;21.40;99.90;;;;;;5024438;28;20075;-77
2021/07/07 09:57:45;;;;;;;0.10;0.10;;;21.10;99.90;;;;;;5033378;28;20032;-76
2021/07/07 10:00:20;;;;;;;0.10;0.10;;;21.00;99.90;;;;;;5004051;28;20025;-76
2021/07/07 10:02:51;;;;;;;0.10;0.10;;;20.80;99.90;;;;;;5002518;28;20038;-73
2021/07/07 10:05:19;;;;;;;2.28;2.17;;;20.80;99.90;;;;;;5033419;28;20036;-74
2021/07/07 10:07:46;;;;;;;0.10;0.10;;;20.80;99.90;;;;;;5032998;28;20485;-73
2021/07/07 10:10:14;;;;;;;0.10;0.10;;;20.90;99.90;;;;;;5033034;28;20068;-73
2021/07/07 10:12:42;;;;;;;0.00;0.00;;;20.90;99.90;;;;;;5033497;28;20026;-73
2021/07/07 10:15:10;;;;;;;0.15;0.15;;;20.90;99.90;;;;;;5033158;28;20022;-74
2021/07/07 10:17:37;;;;;;;0.00;0.00;;;21.00;99.90;;;;;;5022698;28;20033;-75
2021/07/07 10:20:03;;;;;;;0.10;0.10;;;20.90;99.90;;;;;;5025155;28;20057;-76
2021/07/07 10:22:30;;;;;;;0.00;0.00;;;20.90;99.90;;;;;;5032944;28;20029;-75
2021/07/07 10:24:56;;;;;;;0.00;0.00;;;20.90;99.90;;;;;;5018066;28;20022;-75
2021/07/07 10:27:22;;;;;;;0.10;0.10;;;20.90;99.90;;;;;;5033128;28;20022;-75
2021/07/07 10:29:49;;;;;;;0.00;0.00;;;20.80;99.90;;;;;;5016527;28;20029;-76
2021/07/07 10:32:18;;;;;;;0.05;0.05;;;20.80;99.90;;;;;;5024551;28;20021;-74
2021/07/07 10:34:46;;;;;;;0.10;0.10;;;20.80;99.90;;;;;;5014894;28;20032;-75
2021/07/07 10:37:14;;;;;;;0.00;0.00;;;20.80;99.90;;;;;;5015296;28;20477;-74
2021/07/07 10:39:39;;;;;;;16.10;4.07;;;20.90;99.90;;;;;;5037180;28;20166;-75
2021/07/07 10:42:07;;;;;;;8.65;7.03;;;20.80;99.90;;;;;;5020657;28;20022;-75
2021/07/07 10:44:38;;;;;;;0.10;0.10;;;20.90;99.90;;;;;;5032776;28;20440;-75
2021/07/07 10:47:11;;;;;;;0.10;0.10;;;21.00;99.90;;;;;;5002750;28;20025;-75
2021/07/07 10:49:47;;;;;;;0.10;0.10;;;21.10;99.90;;;;;;5032734;28;20408;-75
2021/07/07 10:52:19;;;;;;;0.13;0.13;;;21.10;99.90;;;;;;5028756;28;20035;-75
2021/07/07 10:54:57;;;;;;;0.10;0.10;;;21.10;99.90;;;;;;5024214;28;20037;-75
2021/07/07 10:57:25;;;;;;;0.20;0.20;;;21.00;99.90;;;;;;5031629;28;20021;-75
2021/07/07 10:59:55;;;;;;;0.00;0.00;;;21.10;99.90;;;;;;5026669;28;20083;-75
2021/07/07 11:02:22;;;;;;;0.40;0.40;;;21.20;99.90;;;;;;5018833;28;20041;-76
2021/07/07 11:05:02;;;;;;;0.30;0.30;;;21.30;99.90;;;;;;5032435;28;20021;-76
2021/07/07 11:07:30;;;;;;;0.03;0.03;;;21.20;99.90;;;;;;5017085;28;20037;-75
2021/07/07 11:09:58;;;;;;;0.10;0.10;;;21.20;99.90;;;;;;5018976;28;20052;-76
2021/07/07 11:12:35;;;;;;;0.10;0.10;;;21.20;99.90;;;;;;5031908;28;20026;-76
2021/07/07 11:15:05;;;;;;;1.02;0.32;;;21.20;99.90;;;;;;5017764;28;20461;-76
2021/07/07 11:17:46;;;;;;;0.10;0.10;;;21.30;99.90;;;;;;5026421;28;20022;-76
2021/07/07 11:20:16;;;;;;;0.00;0.00;;;21.40;99.90;;;;;;5019196;28;20640;-74
2021/07/07 11:22:43;;;;;;;0.10;0.10;;;21.50;99.90;;;;;;5031726;28;20116;-76
2021/07/07 11:25:16;;;;;;;0.00;0.00;;;21.70;99.90;;;;;;5015600;28;20029;-76
2021/07/07 11:27:44;;;;;;;0.10;0.10;;;21.90;99.90;;;;;;5031398;28;20489;-75
2021/07/07 11:30:14;;;;;;;0.05;0.05;;;22.00;99.90;;;;;;5034001;28;20096;-76
2021/07/07 11:32:46;;;;;;;7.63;0.50;;;22.00;99.90;;;;;;5021032;28;20021;-74
2021/07/07 11:35:13;;;;;;;0.00;0.00;;;22.10;99.90;;;;;;5032213;28;20022;-75
2021/07/07 11:37:41;;;;;;;0.15;0.15;;;22.10;99.90;;;;;;5022167;28;20120;-75
2021/07/07 11:40:18;;;;;;;0.10;0.10;;;21.90;99.90;;;;;;5025810;28;20017;-75
2021/07/07 11:42:56;;;;;;;0.10;0.10;;;22.00;99.90;;;;;;5021695;28;20064;-76
2021/07/07 11:45:28;;;;;;;0.00;0.00;;;22.10;99.90;;;;;;5031609;28;20587;-75
2021/07/07 11:48:03;;;;;;;0.10;0.10;;;22.00;99.90;;;;;;5014928;28;20036;-75
2021/07/07 11:50:30;;;;;;;0.00;0.00;;;22.10;99.90;;;;;;5021344;28;20029;-75
2021/07/07 11:53:05;;;;;;;0.10;0.10;;;22.00;99.90;;;;;;5015013;28;20057;-76
2021/07/07 11:55:52;;;;;;;4.28;1.55;;;21.80;99.90;;;;;;5017377;28;20021;-75
2021/07/07 11:58:27;;;;;;;1.35;0.43;;;21.90;99.90;;;;;;5023444;28;20119;-78
2021/07/07 12:00:55;;;;;;;0.20;0.20;;;21.90;99.90;;;;;;5032462;28;20477;-74
2021/07/07 12:03:23;;;;;;;0.13;0.13;;;21.60;99.90;;;;;;5018140;28;20033;-75
2021/07/07 12:06:01;;;;;;;0.10;0.10;;;21.50;99.90;;;;;;5012769;28;20025;-74
2021/07/07 12:08:30;;;;;;;0.00;0.00;;;21.60;99.90;;;;;;4999057;28;20600;-74
2021/07/07 12:11:11;;;;;;;0.10;0.10;;;21.60;99.90;;;;;;5016213;28;20041;-75
2021/07/07 12:13:38;;;;;;;0.00;0.00;;;21.70;99.90;;;;;;5030820;28;20017;-75
2021/07/07 12:16:25;;;;;;;0.10;0.10;;;21.60;99.90;;;;;;5026061;28;20034;-76
2021/07/07 12:19:00;;;;;;;0.10;0.10;;;21.70;99.90;;;;;;5002661;28;20013;-75
2021/07/07 12:21:26;;;;;;;0.00;0.00;;;21.80;99.90;;;;;;5024898;28;20060;-75
2021/07/07 12:23:54;;;;;;;0.10;0.10;;;21.60;99.90;;;;;;5023351;28;20060;-75
2021/07/07 12:26:29;;;;;;;0.20;0.20;;;21.60;99.90;;;;;;5030725;28;20484;-76
2021/07/07 12:28:56;;;;;;;0.20;0.20;;;21.60;99.90;;;;;;5029782;28;20036;-76
2021/07/07 12:31:23;;;;;;;0.00;0.00;;;21.60;99.90;;;;;;5013079;28;20397;-76
2021/07/07 12:33:53;;;;;;;0.10;0.10;;;21.50;99.90;;;;;;5016363;28;20022;-76
2021/07/07 12:36:38;;;;;;;0.00;0.00;;;21.70;99.90;;;;;;5013358;28;20021;-76
2021/07/07 12:39:16;;;;;;;0.00;0.00;;;21.80;99.90;;;;;;5028814;28;20017;-75
2021/07/07 12:41:46;;;;;;;0.00;0.00;;;21.70;99.90;;;;;;5013101;28;20033;-76
2021/07/07 12:44:14;;;;;;;0.10;0.10;;;21.70;99.90;;;;;;4996100;28;20033;-76
2021/07/07 12:46:55;;;;;;;0.17;0.17;;;21.60;99.90;;;;;;5030596;28;20049;-75
2021/07/07 12:49:34;;;;;;;0.10;0.10;;;21.40;99.90;;;;;;5025950;28;20029;-75
2021/07/07 12:52:28;;;;;;;0.00;0.00;;;21.30;99.90;;;;;;5029341;28;20033;-76